sensor_id;sensor_type;location;lat;lon;timestamp;temperature;humidity
12152;DHT22;6139;51.274;7.128;2023-08-08T00:00:19;13.80;1.00
12152;DHT22;6139;51.274;7.128;2023-08-08T00:01:21;13.80;1.00
12152;DHT22;6139;51.274;7.128;2023-08-08T00:02:22;13.80;1.00
12152;DHT22;6139;51.274;7.128;2023-08-08T00:03:24;13.80;1.00
12152;DHT22;6139;51.274;7.128;2023-08-08T00:04:25;13.80;1.00
12152;DHT22;6139;51.274;7.128;2023-08-08T00:05:28;13.80;99.90
12152;DHT22;6139;51.274;7.128;2023-08-08T00:06:29;13.80;99.90
12152;DHT22;6139;51.274;7.128;2023-08-08T00:07:31;13.80;1.00
12152;DHT22;6139;51.274;7.128;2023-08-08T00:08:32;13.70;1.00
12152;DHT22;6139;51.274;7.128;2023-08-08T00:09:34;13.70;1.00
12152;DHT22;6139;51.274;7.128;2023-08-08T00:10:35;13.60;1.00
12152;DHT22;6139;51.274;7.128;2023-08-08T00:11:37;13.70;1.00
12152;DHT22;6139;51.274;7.128;2023-08-08T00:12:38;13.70;1.00
12152;DHT22;6139;51.274;7.128;2023-08-08T00:13:40;13.70;99.90
12152;DHT22;6139;51.274;7.128;2023-08-08T00:14:41;13.70;1.00
12152;DHT22;6139;51.274;7.128;2023-08-08T00:15:43;13.70;99.90
12152;DHT22;6139;51.274;7.128;2023-08-08T00:16:44;13.60;99.90
12152;DHT22;6139;51.274;7.128;2023-08-08T00:17:46;13.60;99.90
12152;DHT22;6139;51.274;7.128;2023-08-08T00:18:47;13.60;99.90
12152;DHT22;6139;51.274;7.128;2023-08-08T00:19:51;13.60;1.00
12152;DHT22;6139;51.274;7.128;2023-08-08T00:20:56;13.60;1.00
12152;DHT22;6139;51.274;7.128;2023-08-08T00:21:58;13.60;99.90
12152;DHT22;6139;51.274;7.128;2023-08-08T00:22:59;13.50;99.90
12152;DHT22;6139;51.274;7.128;2023-08-08T00:24:03;13.50;99.90
12152;DHT22;6139;51.274;7.128;2023-08-08T00:25:04;13.50;99.90
12152;DHT22;6139;51.274;7.128;2023-08-08T00:26:06;13.50;99.90
12152;DHT22;6139;51.274;7.128;2023-08-08T00:27:07;13.50;1.00
12152;DHT22;6139;51.274;7.128;2023-08-08T00:28:09;13.50;1.00
12152;DHT22;6139;51.274;7.128;2023-08-08T00:29:10;13.50;99.90
12152;DHT22;6139;51.274;7.128;2023-08-08T00:30:12;13.50;99.90
12152;DHT22;6139;51.274;7.128;2023-08-08T00:31:14;13.40;99.90
12152;DHT22;6139;51.274;7.128;2023-08-08T00:32:18;13.40;1.00
12152;DHT22;6139;51.274;7.128;2023-08-08T00:33:19;13.40;1.00
12152;DHT22;6139;51.274;7.128;2023-08-08T00:34:22;13.40;99.90
12152;DHT22;6139;51.274;7.128;2023-08-08T00:35:23;13.40;1.00
12152;DHT22;6139;51.274;7.128;2023-08-08T00:36:27;13.30;1.00
12152;DHT22;6139;51.274;7.128;2023-08-08T00:37:29;13.30;1.00
12152;DHT22;6139;51.274;7.128;2023-08-08T00:38:31;13.30;1.00
12152;DHT22;6139;51.274;7.128;2023-08-08T00:39:31;13.30;1.00
12152;DHT22;6139;51.274;7.128;2023-08-08T00:40:34;13.30;1.00
12152;DHT22;6139;51.274;7.128;2023-08-08T00:41:34;13.30;1.00
12152;DHT22;6139;51.274;7.128;2023-08-08T00:42:37;13.30;1.00
12152;DHT22;6139;51.274;7.128;2023-08-08T00:43:38;13.30;1.00
12152;DHT22;6139;51.274;7.128;2023-08-08T00:44:40;13.30;1.00
12152;DHT22;6139;51.274;7.128;2023-08-08T00:45:42;13.30;1.00
12152;DHT22;6139;51.274;7.128;2023-08-08T00:46:46;13.30;1.00
12152;DHT22;6139;51.274;7.128;2023-08-08T00:47:47;13.20;1.00
12152;DHT22;6139;51.274;7.128;2023-08-08T00:48:49;13.20;1.00
12152;DHT22;6139;51.274;7.128;2023-08-08T00:49:50;13.20;1.00
12152;DHT22;6139;51.274;7.128;2023-08-08T00:50:52;13.20;1.00
12152;DHT22;6139;51.274;7.128;2023-08-08T00:51:55;13.20;1.00
12152;DHT22;6139;51.274;7.128;2023-08-08T00:52:57;13.20;1.00
12152;DHT22;6139;51.274;7.128;2023-08-08T00:53:59;13.20;1.00
12152;DHT22;6139;51.274;7.128;2023-08-08T00:55:01;13.20;1.00
12152;DHT22;6139;51.274;7.128;2023-08-08T00:56:03;13.30;1.00
12152;DHT22;6139;51.274;7.128;2023-08-08T00:57:04;13.30;1.00
12152;DHT22;6139;51.274;7.128;2023-08-08T00:58:07;13.20;1.00
12152;DHT22;6139;51.274;7.128;2023-08-08T00:59:08;13.20;1.00
12152;DHT22;6139;51.274;7.128;2023-08-08T01:00:12;13.20;1.00
12152;DHT22;6139;51.274;7.128;2023-08-08T01:01:13;13.20;99.90
12152;DHT22;6139;51.274;7.128;2023-08-08T01:02:15;13.20;1.00
12152;DHT22;6139;51.274;7.128;2023-08-08T01:03:17;13.20;1.00
12152;DHT22;6139;51.274;7.128;2023-08-08T01:04:18;13.20;1.00
12152;DHT22;6139;51.274;7.128;2023-08-08T01:05:22;13.20;99.90
12152;DHT22;6139;51.274;7.128;2023-08-08T01:06:28;13.20;84.50
12152;DHT22;6139;51.274;7.128;2023-08-08T01:07:38;13.20;99.90
12152;DHT22;6139;51.274;7.128;2023-08-08T01:08:46;13.20;99.90
12152;DHT22;6139;51.274;7.128;2023-08-08T01:09:55;13.20;99.90
12152;DHT22;6139;51.274;7.128;2023-08-08T01:10:57;13.20;99.90
12152;DHT22;6139;51.274;7.128;2023-08-08T01:12:00;13.20;99.90
12152;DHT22;6139;51.274;7.128;2023-08-08T01:13:05;13.20;99.90
12152;DHT22;6139;51.274;7.128;2023-08-08T01:14:07;13.20;92.20
12152;DHT22;6139;51.274;7.128;2023-08-08T01:15:11;13.20;99.90
12152;DHT22;6139;51.274;7.128;2023-08-08T01:16:13;13.10;99.90
12152;DHT22;6139;51.274;7.128;2023-08-08T01:17:16;13.10;1.00
12152;DHT22;6139;51.274;7.128;2023-08-08T01:18:18;13.10;1.00
12152;DHT22;6139;51.274;7.128;2023-08-08T01:19:25;13.10;1.00
12152;DHT22;6139;51.274;7.128;2023-08-08T01:20:29;13.10;99.90
12152;DHT22;6139;51.274;7.128;2023-08-08T01:21:33;13.10;1.00
12152;DHT22;6139;51.274;7.128;2023-08-08T01:22:42;13.10;1.00
12152;DHT22;6139;51.274;7.128;2023-08-08T01:23:46;13.10;1.00
12152;DHT22;6139;51.274;7.128;2023-08-08T01:24:53;13.10;1.00
12152;DHT22;6139;51.274;7.128;2023-08-08T01:25:55;13.10;1.00
12152;DHT22;6139;51.274;7.128;2023-08-08T01:27:00;13.10;1.00
12152;DHT22;6139;51.274;7.128;2023-08-08T01:28:03;13.10;1.00
12152;DHT22;6139;51.274;7.128;2023-08-08T01:29:05;13.10;1.00
12152;DHT22;6139;51.274;7.128;2023-08-08T01:30:07;13.10;1.00
12152;DHT22;6139;51.274;7.128;2023-08-08T01:31:10;13.10;1.00
12152;DHT22;6139;51.274;7.128;2023-08-08T01:32:11;13.20;1.00
12152;DHT22;6139;51.274;7.128;2023-08-08T01:33:13;13.20;99.90
12152;DHT22;6139;51.274;7.128;2023-08-08T01:34:14;13.20;99.90
12152;DHT22;6139;51.274;7.128;2023-08-08T01:35:16;13.20;99.90
12152;DHT22;6139;51.274;7.128;2023-08-08T01:36:22;13.20;99.90
12152;DHT22;6139;51.274;7.128;2023-08-08T01:37:31;13.20;98.00
12152;DHT22;6139;51.274;7.128;2023-08-08T01:38:36;13.20;94.20
12152;DHT22;6139;51.274;7.128;2023-08-08T01:39:41;13.20;1.00
12152;DHT22;6139;51.274;7.128;2023-08-08T01:40:44;13.20;1.00
12152;DHT22;6139;51.274;7.128;2023-08-08T01:41:48;13.20;28.90
12152;DHT22;6139;51.274;7.128;2023-08-08T01:42:49;13.20;1.00
12152;DHT22;6139;51.274;7.128;2023-08-08T01:43:52;13.20;99.90
12152;DHT22;6139;51.274;7.128;2023-08-08T01:44:55;13.20;99.90
12152;DHT22;6139;51.274;7.128;2023-08-08T01:45:58;13.20;99.90
12152;DHT22;6139;51.274;7.128;2023-08-08T01:47:00;13.20;1.00
12152;DHT22;6139;51.274;7.128;2023-08-08T01:48:06;13.20;1.00
12152;DHT22;6139;51.274;7.128;2023-08-08T01:49:07;13.20;1.00
12152;DHT22;6139;51.274;7.128;2023-08-08T01:50:10;13.20;1.00
12152;DHT22;6139;51.274;7.128;2023-08-08T01:51:11;13.20;1.00
12152;DHT22;6139;51.274;7.128;2023-08-08T01:52:13;13.10;99.90
12152;DHT22;6139;51.274;7.128;2023-08-08T01:53:15;13.10;1.00
12152;DHT22;6139;51.274;7.128;2023-08-08T01:54:17;13.10;1.00
12152;DHT22;6139;51.274;7.128;2023-08-08T01:55:18;13.10;1.00
12152;DHT22;6139;51.274;7.128;2023-08-08T01:56:22;13.10;1.00
12152;DHT22;6139;51.274;7.128;2023-08-08T01:57:23;13.10;1.00
12152;DHT22;6139;51.274;7.128;2023-08-08T01:58:25;13.10;1.00
12152;DHT22;6139;51.274;7.128;2023-08-08T01:59:26;13.10;1.00
12152;DHT22;6139;51.274;7.128;2023-08-08T02:00:28;13.10;1.00
12152;DHT22;6139;51.274;7.128;2023-08-08T02:01:29;13.10;1.00
12152;DHT22;6139;51.274;7.128;2023-08-08T02:02:31;13.10;1.00
12152;DHT22;6139;51.274;7.128;2023-08-08T02:03:32;13.10;1.00
12152;DHT22;6139;51.274;7.128;2023-08-08T02:04:34;13.10;1.00
12152;DHT22;6139;51.274;7.128;2023-08-08T02:05:35;13.10;1.00
12152;DHT22;6139;51.274;7.128;2023-08-08T02:06:37;13.10;1.00
12152;DHT22;6139;51.274;7.128;2023-08-08T02:07:39;13.10;1.00
12152;DHT22;6139;51.274;7.128;2023-08-08T02:08:41;13.10;1.00
12152;DHT22;6139;51.274;7.128;2023-08-08T02:09:42;13.10;1.00
12152;DHT22;6139;51.274;7.128;2023-08-08T02:10:46;13.10;1.00
12152;DHT22;6139;51.274;7.128;2023-08-08T02:11:48;13.00;1.00
12152;DHT22;6139;51.274;7.128;2023-08-08T02:12:50;13.00;1.00
12152;DHT22;6139;51.274;7.128;2023-08-08T02:13:51;13.00;1.00
12152;DHT22;6139;51.274;7.128;2023-08-08T02:14:52;13.00;1.00
12152;DHT22;6139;51.274;7.128;2023-08-08T02:15:56;13.00;1.00
12152;DHT22;6139;51.274;7.128;2023-08-08T02:16:57;13.00;1.00
12152;DHT22;6139;51.274;7.128;2023-08-08T02:17:59;13.00;1.00
12152;DHT22;6139;51.274;7.128;2023-08-08T02:19:01;13.00;1.00
12152;DHT22;6139;51.274;7.128;2023-08-08T02:20:02;13.00;1.00
12152;DHT22;6139;51.274;7.128;2023-08-08T02:21:05;13.00;1.00
12152;DHT22;6139;51.274;7.128;2023-08-08T02:22:06;13.00;12.20
12152;DHT22;6139;51.274;7.128;2023-08-08T02:23:08;12.90;9.50
12152;DHT22;6139;51.274;7.128;2023-08-08T02:24:09;12.90;99.90
12152;DHT22;6139;51.274;7.128;2023-08-08T02:25:11;12.90;99.90
12152;DHT22;6139;51.274;7.128;2023-08-08T02:26:12;12.90;1.00
12152;DHT22;6139;51.274;7.128;2023-08-08T02:27:15;12.90;1.00
12152;DHT22;6139;51.274;7.128;2023-08-08T02:28:16;12.90;1.00
12152;DHT22;6139;51.274;7.128;2023-08-08T02:29:18;12.90;1.00
12152;DHT22;6139;51.274;7.128;2023-08-08T02:30:20;12.90;1.00
12152;DHT22;6139;51.274;7.128;2023-08-08T02:31:21;12.90;1.00
12152;DHT22;6139;51.274;7.128;2023-08-08T02:32:25;12.90;1.00
12152;DHT22;6139;51.274;7.128;2023-08-08T02:33:28;12.90;1.00
12152;DHT22;6139;51.274;7.128;2023-08-08T02:34:30;12.90;1.00
12152;DHT22;6139;51.274;7.128;2023-08-08T02:35:31;12.90;1.00
12152;DHT22;6139;51.274;7.128;2023-08-08T02:36:35;12.90;1.00
12152;DHT22;6139;51.274;7.128;2023-08-08T02:37:36;12.90;1.00
12152;DHT22;6139;51.274;7.128;2023-08-08T02:38:38;12.80;1.00
12152;DHT22;6139;51.274;7.128;2023-08-08T02:39:39;12.80;1.00
12152;DHT22;6139;51.274;7.128;2023-08-08T02:40:41;12.80;16.00
12152;DHT22;6139;51.274;7.128;2023-08-08T02:41:42;12.80;1.00
12152;DHT22;6139;51.274;7.128;2023-08-08T02:42:46;12.80;99.90
12152;DHT22;6139;51.274;7.128;2023-08-08T02:43:47;12.80;99.90
12152;DHT22;6139;51.274;7.128;2023-08-08T02:44:49;12.80;99.90
12152;DHT22;6139;51.274;7.128;2023-08-08T02:45:50;12.80;99.90
12152;DHT22;6139;51.274;7.128;2023-08-08T02:46:51;12.80;99.90
12152;DHT22;6139;51.274;7.128;2023-08-08T02:47:53;12.80;99.90
12152;DHT22;6139;51.274;7.128;2023-08-08T02:48:54;12.80;99.90
12152;DHT22;6139;51.274;7.128;2023-08-08T02:49:55;12.70;1.00
12152;DHT22;6139;51.274;7.128;2023-08-08T02:50:57;12.70;1.00
12152;DHT22;6139;51.274;7.128;2023-08-08T02:52:00;12.70;1.00
12152;DHT22;6139;51.274;7.128;2023-08-08T02:53:05;12.70;1.00
12152;DHT22;6139;51.274;7.128;2023-08-08T02:54:11;12.70;1.00
12152;DHT22;6139;51.274;7.128;2023-08-08T02:55:16;12.80;1.00
12152;DHT22;6139;51.274;7.128;2023-08-08T02:56:20;12.80;1.00
12152;DHT22;6139;51.274;7.128;2023-08-08T02:57:24;12.80;1.00
12152;DHT22;6139;51.274;7.128;2023-08-08T02:58:28;12.80;99.90
12152;DHT22;6139;51.274;7.128;2023-08-08T02:59:31;12.80;99.90
12152;DHT22;6139;51.274;7.128;2023-08-08T03:00:35;12.70;99.90
12152;DHT22;6139;51.274;7.128;2023-08-08T03:01:37;12.80;1.00
12152;DHT22;6139;51.274;7.128;2023-08-08T03:02:43;12.80;99.90
12152;DHT22;6139;51.274;7.128;2023-08-08T03:03:45;12.70;99.90
12152;DHT22;6139;51.274;7.128;2023-08-08T03:04:46;12.70;1.00
12152;DHT22;6139;51.274;7.128;2023-08-08T03:05:48;12.70;1.00
12152;DHT22;6139;51.274;7.128;2023-08-08T03:06:51;12.80;99.90
12152;DHT22;6139;51.274;7.128;2023-08-08T03:07:54;12.70;99.90
12152;DHT22;6139;51.274;7.128;2023-08-08T03:08:55;12.70;99.90
12152;DHT22;6139;51.274;7.128;2023-08-08T03:09:57;12.70;99.90
12152;DHT22;6139;51.274;7.128;2023-08-08T03:10:58;12.70;1.00
12152;DHT22;6139;51.274;7.128;2023-08-08T03:11:59;12.70;1.00
12152;DHT22;6139;51.274;7.128;2023-08-08T03:13:01;12.70;99.90
12152;DHT22;6139;51.274;7.128;2023-08-08T03:14:03;12.70;1.00
12152;DHT22;6139;51.274;7.128;2023-08-08T03:15:06;12.70;1.00
12152;DHT22;6139;51.274;7.128;2023-08-08T03:16:08;12.70;99.90
12152;DHT22;6139;51.274;7.128;2023-08-08T03:17:10;12.70;99.90
12152;DHT22;6139;51.274;7.128;2023-08-08T03:18:12;12.70;1.00
12152;DHT22;6139;51.274;7.128;2023-08-08T03:19:13;12.70;1.00
12152;DHT22;6139;51.274;7.128;2023-08-08T03:20:14;12.70;1.00
12152;DHT22;6139;51.274;7.128;2023-08-08T03:21:16;12.70;1.00
12152;DHT22;6139;51.274;7.128;2023-08-08T03:22:18;12.70;1.00
12152;DHT22;6139;51.274;7.128;2023-08-08T03:23:19;12.70;1.00
12152;DHT22;6139;51.274;7.128;2023-08-08T03:24:21;12.70;1.00
12152;DHT22;6139;51.274;7.128;2023-08-08T03:25:22;12.70;1.00
12152;DHT22;6139;51.274;7.128;2023-08-08T03:26:26;12.70;1.00
12152;DHT22;6139;51.274;7.128;2023-08-08T03:27:27;12.80;99.90
12152;DHT22;6139;51.274;7.128;2023-08-08T03:28:29;12.70;99.90
12152;DHT22;6139;51.274;7.128;2023-08-08T03:29:33;12.80;1.00
12152;DHT22;6139;51.274;7.128;2023-08-08T03:30:36;12.80;1.00
12152;DHT22;6139;51.274;7.128;2023-08-08T03:31:38;12.70;1.00
12152;DHT22;6139;51.274;7.128;2023-08-08T03:32:41;12.70;1.00
12152;DHT22;6139;51.274;7.128;2023-08-08T03:33:42;12.80;99.90
12152;DHT22;6139;51.274;7.128;2023-08-08T03:34:45;12.70;99.90
12152;DHT22;6139;51.274;7.128;2023-08-08T03:35:48;12.70;1.00
12152;DHT22;6139;51.274;7.128;2023-08-08T03:36:51;12.70;1.00
12152;DHT22;6139;51.274;7.128;2023-08-08T03:37:53;12.70;1.00
12152;DHT22;6139;51.274;7.128;2023-08-08T03:38:54;12.80;1.00
12152;DHT22;6139;51.274;7.128;2023-08-08T03:39:56;12.70;1.00
12152;DHT22;6139;51.274;7.128;2023-08-08T03:40:57;12.70;1.00
12152;DHT22;6139;51.274;7.128;2023-08-08T03:41:59;12.70;90.80
12152;DHT22;6139;51.274;7.128;2023-08-08T03:43:00;12.80;1.00
12152;DHT22;6139;51.274;7.128;2023-08-08T03:44:04;12.80;1.00
12152;DHT22;6139;51.274;7.128;2023-08-08T03:45:07;12.80;1.00
12152;DHT22;6139;51.274;7.128;2023-08-08T03:46:10;12.80;1.00
12152;DHT22;6139;51.274;7.128;2023-08-08T03:47:12;12.80;1.00
12152;DHT22;6139;51.274;7.128;2023-08-08T03:48:14;12.80;1.00
12152;DHT22;6139;51.274;7.128;2023-08-08T03:49:15;12.80;1.00
12152;DHT22;6139;51.274;7.128;2023-08-08T03:50:17;12.80;1.00
12152;DHT22;6139;51.274;7.128;2023-08-08T03:51:18;12.80;1.00
12152;DHT22;6139;51.274;7.128;2023-08-08T03:52:20;12.80;1.00
12152;DHT22;6139;51.274;7.128;2023-08-08T03:53:21;12.80;1.00
12152;DHT22;6139;51.274;7.128;2023-08-08T03:54:23;12.80;1.00
12152;DHT22;6139;51.274;7.128;2023-08-08T03:55:24;12.80;54.60
12152;DHT22;6139;51.274;7.128;2023-08-08T03:56:26;12.80;99.90
12152;DHT22;6139;51.274;7.128;2023-08-08T03:57:28;12.80;1.00
12152;DHT22;6139;51.274;7.128;2023-08-08T03:58:31;12.70;1.00
12152;DHT22;6139;51.274;7.128;2023-08-08T03:59:32;12.80;1.00
12152;DHT22;6139;51.274;7.128;2023-08-08T04:00:35;12.80;1.00
12152;DHT22;6139;51.274;7.128;2023-08-08T04:01:36;12.80;1.00
12152;DHT22;6139;51.274;7.128;2023-08-08T04:02:39;12.80;99.90
12152;DHT22;6139;51.274;7.128;2023-08-08T04:03:41;12.80;99.90
12152;DHT22;6139;51.274;7.128;2023-08-08T04:04:43;12.80;1.00
12152;DHT22;6139;51.274;7.128;2023-08-08T04:05:44;12.70;1.00
12152;DHT22;6139;51.274;7.128;2023-08-08T04:06:48;12.80;1.00
12152;DHT22;6139;51.274;7.128;2023-08-08T04:07:49;12.70;1.00
12152;DHT22;6139;51.274;7.128;2023-08-08T04:08:51;12.70;1.00
12152;DHT22;6139;51.274;7.128;2023-08-08T04:09:52;12.70;41.70
12152;DHT22;6139;51.274;7.128;2023-08-08T04:10:53;12.70;99.90
12152;DHT22;6139;51.274;7.128;2023-08-08T04:11:55;12.70;99.90
12152;DHT22;6139;51.274;7.128;2023-08-08T04:12:56;12.70;33.80
12152;DHT22;6139;51.274;7.128;2023-08-08T04:13:58;12.70;66.70
12152;DHT22;6139;51.274;7.128;2023-08-08T04:14:59;12.70;1.00
12152;DHT22;6139;51.274;7.128;2023-08-08T04:16:03;12.70;75.30
12152;DHT22;6139;51.274;7.128;2023-08-08T04:17:04;12.70;99.90
12152;DHT22;6139;51.274;7.128;2023-08-08T04:18:06;12.70;99.90
12152;DHT22;6139;51.274;7.128;2023-08-08T04:19:07;12.80;99.90
12152;DHT22;6139;51.274;7.128;2023-08-08T04:20:10;12.80;21.30
12152;DHT22;6139;51.274;7.128;2023-08-08T04:21:11;12.80;99.90
12152;DHT22;6139;51.274;7.128;2023-08-08T04:22:13;12.80;99.90
12152;DHT22;6139;51.274;7.128;2023-08-08T04:23:14;12.80;99.90
12152;DHT22;6139;51.274;7.128;2023-08-08T04:24:16;12.80;99.90
12152;DHT22;6139;51.274;7.128;2023-08-08T04:25:17;12.80;99.90
12152;DHT22;6139;51.274;7.128;2023-08-08T04:26:20;12.80;1.00
12152;DHT22;6139;51.274;7.128;2023-08-08T04:27:21;12.80;1.00
12152;DHT22;6139;51.274;7.128;2023-08-08T04:28:23;12.80;99.90
12152;DHT22;6139;51.274;7.128;2023-08-08T04:29:24;12.80;99.90
12152;DHT22;6139;51.274;7.128;2023-08-08T04:30:26;12.80;92.50
12152;DHT22;6139;51.274;7.128;2023-08-08T04:31:28;12.80;99.90
12152;DHT22;6139;51.274;7.128;2023-08-08T04:32:30;12.80;99.90
12152;DHT22;6139;51.274;7.128;2023-08-08T04:33:31;12.80;99.90
12152;DHT22;6139;51.274;7.128;2023-08-08T04:34:33;12.80;99.90
12152;DHT22;6139;51.274;7.128;2023-08-08T04:35:34;12.80;99.90
12152;DHT22;6139;51.274;7.128;2023-08-08T04:36:36;12.80;99.90
12152;DHT22;6139;51.274;7.128;2023-08-08T04:37:37;12.80;99.90
12152;DHT22;6139;51.274;7.128;2023-08-08T04:38:39;12.80;99.90
12152;DHT22;6139;51.274;7.128;2023-08-08T04:39:40;12.80;99.90
12152;DHT22;6139;51.274;7.128;2023-08-08T04:40:42;12.80;99.90
12152;DHT22;6139;51.274;7.128;2023-08-08T04:41:43;12.80;99.90
12152;DHT22;6139;51.274;7.128;2023-08-08T04:42:45;12.80;96.30
12152;DHT22;6139;51.274;7.128;2023-08-08T04:43:46;12.80;95.50
12152;DHT22;6139;51.274;7.128;2023-08-08T04:44:47;12.80;48.20
12152;DHT22;6139;51.274;7.128;2023-08-08T04:45:48;12.80;99.90
12152;DHT22;6139;51.274;7.128;2023-08-08T04:46:52;12.80;99.90
12152;DHT22;6139;51.274;7.128;2023-08-08T04:47:53;12.80;99.90
12152;DHT22;6139;51.274;7.128;2023-08-08T04:48:55;12.80;99.90
12152;DHT22;6139;51.274;7.128;2023-08-08T04:49:56;12.80;1.00
12152;DHT22;6139;51.274;7.128;2023-08-08T04:50:58;12.80;1.00
12152;DHT22;6139;51.274;7.128;2023-08-08T04:51:59;12.80;1.00
12152;DHT22;6139;51.274;7.128;2023-08-08T04:53:01;12.80;1.00
12152;DHT22;6139;51.274;7.128;2023-08-08T04:54:04;12.80;1.00
12152;DHT22;6139;51.274;7.128;2023-08-08T04:55:07;12.80;1.00
12152;DHT22;6139;51.274;7.128;2023-08-08T04:56:08;12.80;1.00
12152;DHT22;6139;51.274;7.128;2023-08-08T04:57:09;12.80;1.00
12152;DHT22;6139;51.274;7.128;2023-08-08T04:58:11;12.80;1.00
12152;DHT22;6139;51.274;7.128;2023-08-08T04:59:12;12.80;1.00
12152;DHT22;6139;51.274;7.128;2023-08-08T05:00:14;12.80;1.00
12152;DHT22;6139;51.274;7.128;2023-08-08T05:01:15;12.80;1.00
12152;DHT22;6139;51.274;7.128;2023-08-08T05:02:19;12.80;1.00
12152;DHT22;6139;51.274;7.128;2023-08-08T05:03:20;12.80;1.00
12152;DHT22;6139;51.274;7.128;2023-08-08T05:04:22;12.80;1.00
12152;DHT22;6139;51.274;7.128;2023-08-08T05:05:23;12.80;1.00
12152;DHT22;6139;51.274;7.128;2023-08-08T05:06:25;12.80;1.00
12152;DHT22;6139;51.274;7.128;2023-08-08T05:07:26;12.80;1.00
12152;DHT22;6139;51.274;7.128;2023-08-08T05:08:28;12.80;1.00
12152;DHT22;6139;51.274;7.128;2023-08-08T05:09:32;12.80;1.00
12152;DHT22;6139;51.274;7.128;2023-08-08T05:10:34;12.80;1.00
12152;DHT22;6139;51.274;7.128;2023-08-08T05:11:35;12.80;1.00
12152;DHT22;6139;51.274;7.128;2023-08-08T05:12:37;12.80;1.00
12152;DHT22;6139;51.274;7.128;2023-08-08T05:13:39;12.80;1.00
12152;DHT22;6139;51.274;7.128;2023-08-08T05:14:40;12.80;1.00
12152;DHT22;6139;51.274;7.128;2023-08-08T05:15:41;12.80;1.00
12152;DHT22;6139;51.274;7.128;2023-08-08T05:16:43;12.80;1.00
12152;DHT22;6139;51.274;7.128;2023-08-08T05:17:46;12.80;1.00
12152;DHT22;6139;51.274;7.128;2023-08-08T05:18:48;12.80;1.00
12152;DHT22;6139;51.274;7.128;2023-08-08T05:19:49;12.90;1.00
12152;DHT22;6139;51.274;7.128;2023-08-08T05:20:51;12.90;1.00
12152;DHT22;6139;51.274;7.128;2023-08-08T05:21:52;12.90;1.00
12152;DHT22;6139;51.274;7.128;2023-08-08T05:22:54;12.90;1.00
12152;DHT22;6139;51.274;7.128;2023-08-08T05:23:55;12.90;1.00
12152;DHT22;6139;51.274;7.128;2023-08-08T05:24:57;12.90;1.00
12152;DHT22;6139;51.274;7.128;2023-08-08T05:25:58;12.90;1.00
12152;DHT22;6139;51.274;7.128;2023-08-08T05:27:00;12.90;1.00
12152;DHT22;6139;51.274;7.128;2023-08-08T05:28:01;12.90;1.00
12152;DHT22;6139;51.274;7.128;2023-08-08T05:29:03;12.90;1.00
12152;DHT22;6139;51.274;7.128;2023-08-08T05:30:05;12.90;1.00
12152;DHT22;6139;51.274;7.128;2023-08-08T05:31:07;12.90;1.00
12152;DHT22;6139;51.274;7.128;2023-08-08T05:32:08;12.90;1.00
12152;DHT22;6139;51.274;7.128;2023-08-08T05:33:12;12.90;1.00
12152;DHT22;6139;51.274;7.128;2023-08-08T05:34:13;12.90;1.00
12152;DHT22;6139;51.274;7.128;2023-08-08T05:35:15;12.90;1.00
12152;DHT22;6139;51.274;7.128;2023-08-08T05:36:16;12.90;1.00
12152;DHT22;6139;51.274;7.128;2023-08-08T05:37:18;12.90;1.00
12152;DHT22;6139;51.274;7.128;2023-08-08T05:38:19;12.90;1.00
12152;DHT22;6139;51.274;7.128;2023-08-08T05:39:21;13.00;1.00
12152;DHT22;6139;51.274;7.128;2023-08-08T05:40:22;12.90;1.00
12152;DHT22;6139;51.274;7.128;2023-08-08T05:41:24;12.90;1.00
12152;DHT22;6139;51.274;7.128;2023-08-08T05:42:25;12.90;1.00
12152;DHT22;6139;51.274;7.128;2023-08-08T05:43:27;12.90;1.00
12152;DHT22;6139;51.274;7.128;2023-08-08T05:44:28;12.90;1.00
12152;DHT22;6139;51.274;7.128;2023-08-08T05:45:30;12.90;1.00
12152;DHT22;6139;51.274;7.128;2023-08-08T05:46:32;12.90;1.00
12152;DHT22;6139;51.274;7.128;2023-08-08T05:47:34;12.90;1.00
12152;DHT22;6139;51.274;7.128;2023-08-08T05:48:36;12.90;1.00
12152;DHT22;6139;51.274;7.128;2023-08-08T05:49:39;12.90;1.00
12152;DHT22;6139;51.274;7.128;2023-08-08T05:50:42;12.90;1.00
12152;DHT22;6139;51.274;7.128;2023-08-08T05:51:44;12.90;1.00
12152;DHT22;6139;51.274;7.128;2023-08-08T05:52:45;12.90;1.00
12152;DHT22;6139;51.274;7.128;2023-08-08T05:53:47;12.90;1.00
12152;DHT22;6139;51.274;7.128;2023-08-08T05:54:48;12.90;1.00
12152;DHT22;6139;51.274;7.128;2023-08-08T05:55:50;12.90;1.00
12152;DHT22;6139;51.274;7.128;2023-08-08T05:56:51;12.90;1.00
12152;DHT22;6139;51.274;7.128;2023-08-08T05:57:53;12.90;1.00
12152;DHT22;6139;51.274;7.128;2023-08-08T05:58:55;12.90;7.80
12152;DHT22;6139;51.274;7.128;2023-08-08T05:59:57;12.90;11.60
12152;DHT22;6139;51.274;7.128;2023-08-08T06:00:58;13.00;8.30
12152;DHT22;6139;51.274;7.128;2023-08-08T06:02:00;13.00;11.40
12152;DHT22;6139;51.274;7.128;2023-08-08T06:03:01;12.90;25.30
12152;DHT22;6139;51.274;7.128;2023-08-08T06:04:05;12.90;57.20
12152;DHT22;6139;51.274;7.128;2023-08-08T06:05:07;13.00;63.70
12152;DHT22;6139;51.274;7.128;2023-08-08T06:06:09;13.00;69.40
12152;DHT22;6139;51.274;7.128;2023-08-08T06:07:10;13.00;71.40
12152;DHT22;6139;51.274;7.128;2023-08-08T06:08:12;13.00;72.60
12152;DHT22;6139;51.274;7.128;2023-08-08T06:09:14;13.00;57.50
12152;DHT22;6139;51.274;7.128;2023-08-08T06:10:16;13.00;40.10
12152;DHT22;6139;51.274;7.128;2023-08-08T06:11:17;13.10;35.70
12152;DHT22;6139;51.274;7.128;2023-08-08T06:12:19;13.10;37.00
12152;DHT22;6139;51.274;7.128;2023-08-08T06:13:20;13.10;20.60
12152;DHT22;6139;51.274;7.128;2023-08-08T06:14:22;13.10;21.70
12152;DHT22;6139;51.274;7.128;2023-08-08T06:15:23;13.10;8.40
12152;DHT22;6139;51.274;7.128;2023-08-08T06:16:25;13.10;2.10
12152;DHT22;6139;51.274;7.128;2023-08-08T06:17:26;13.10;1.00
12152;DHT22;6139;51.274;7.128;2023-08-08T06:18:28;13.10;1.00
12152;DHT22;6139;51.274;7.128;2023-08-08T06:19:31;13.10;22.10
12152;DHT22;6139;51.274;7.128;2023-08-08T06:20:33;13.10;35.20
12152;DHT22;6139;51.274;7.128;2023-08-08T06:21:34;13.00;64.40
12152;DHT22;6139;51.274;7.128;2023-08-08T06:22:36;13.00;96.00
12152;DHT22;6139;51.274;7.128;2023-08-08T06:23:37;13.00;98.10
12152;DHT22;6139;51.274;7.128;2023-08-08T06:24:39;13.00;95.00
12152;DHT22;6139;51.274;7.128;2023-08-08T06:25:43;13.00;99.90
12152;DHT22;6139;51.274;7.128;2023-08-08T06:26:45;13.00;99.90
12152;DHT22;6139;51.274;7.128;2023-08-08T06:27:46;13.10;99.90
12152;DHT22;6139;51.274;7.128;2023-08-08T06:28:48;13.10;99.90
12152;DHT22;6139;51.274;7.128;2023-08-08T06:29:49;13.10;99.90
12152;DHT22;6139;51.274;7.128;2023-08-08T06:30:51;13.10;99.90
12152;DHT22;6139;51.274;7.128;2023-08-08T06:31:52;13.10;99.90
12152;DHT22;6139;51.274;7.128;2023-08-08T06:32:54;13.10;99.90
12152;DHT22;6139;51.274;7.128;2023-08-08T06:33:55;13.10;99.90
12152;DHT22;6139;51.274;7.128;2023-08-08T06:34:58;13.10;99.90
12152;DHT22;6139;51.274;7.128;2023-08-08T06:35:59;13.20;99.90
12152;DHT22;6139;51.274;7.128;2023-08-08T06:37:01;13.20;99.90
12152;DHT22;6139;51.274;7.128;2023-08-08T06:38:02;13.20;79.40
12152;DHT22;6139;51.274;7.128;2023-08-08T06:39:04;13.20;65.70
12152;DHT22;6139;51.274;7.128;2023-08-08T06:40:25;13.20;59.00
12152;DHT22;6139;51.274;7.128;2023-08-08T06:41:46;13.20;85.90
12152;DHT22;6139;51.274;7.128;2023-08-08T06:43:06;13.20;94.10